Date,TemperatureHighF,TemperatureAvgF,TemperatureLowF,DewpointHighF,DewpointAvgF,DewpointLowF,HumidityHigh,HumidityAvg,HumidityLow,PressureMaxIn,PressureMinIn,WindSpeedMaxMPH,WindSpeedAvgMPH,GustSpeedMaxMPH,PrecipitationSumIn
2012-1-1,54.0,47.0,42.0,-99.9,-99.9,-99.9,0,0,100,0.00,40.00,24,17,28,0.00
2012-1-2,55.0,49.2,45.0,-99.9,-99.9,-99.9,0,0,100,0.00,40.00,46,22,58,0.00
2012-1-3,56.0,50.9,47.0,-99.9,-99.9,-99.9,0,0,100,0.00,40.00,23,12,32,0.00
2012-1-4,56.0,51.6,48.0,-99.9,-99.9,-99.9,0,0,100,0.00,40.00,41,25,52,0.00
2012-1-5,56.0,46.9,38.0,-99.9,-99.9,-99.9,0,0,100,0.00,40.00,20,8,24,0.00
2012-1-6,46.0,40.2,37.0,-99.9,-99.9,-99.9,0,0,100,0.00,40.00,14,7,16,0.00
2012-1-7,50.0,44.1,41.0,-99.9,-99.9,-99.9,0,0,100,0.00,40.00,15,8,16,0.00
2012-1-8,56.0,45.7,41.0,-99.9,-99.9,-99.9,0,0,100,0.00,40.00,16,13,18,0.00
2012-1-9,52.0,44.5,41.0,-99.9,-99.9,-99.9,0,0,100,0.00,40.00,19,8,27,0.00
2012-1-10,52.0,43.7,38.0,-99.9,-99.9,-99.9,0,0,100,0.00,40.00,16,9,18,0.00
2012-1-11,50.0,41.6,36.0,-99.9,-99.9,-99.9,0,0,100,0.00,40.00,21,12,26,0.00
2012-1-12,56.0,43.6,38.0,-99.9,-99.9,-99.9,0,0,100,0.00,40.00,26,15,29,0.00
2012-1-13,58.0,45.2,40.0,-99.9,-99.9,-99.9,0,0,100,0.00,40.00,17,8,21,0.00
2012-1-14,47.0,43.3,38.0,-99.9,-99.9,-99.9,0,0,100,0.00,40.00,32,18,34,0.00
2012-1-15,43.0,37.3,33.0,-99.9,-99.9,-99.9,0,0,100,0.00,40.00,32,12,35,0.00
2012-1-16,41.0,36.3,32.0,-99.9,-99.9,-99.9,0,0,100,0.00,40.00,35,13,40,0.00
2012-1-17,46.0,42.7,40.0,-99.9,-99.9,-99.9,0,0,100,0.00,40.00,44,30,53,0.00
2012-1-18,49.0,46.9,43.0,-99.9,-99.9,-99.9,0,0,100,0.00,40.00,67,42,83,0.00
2012-1-19,50.0,48.9,48.0,-99.9,-99.9,-99.9,0,0,100,0.00,40.00,48,30,65,0.00
2012-1-20,54.0,50.2,48.0,-99.9,-99.9,-99.9,0,0,100,0.00,40.00,46,23,58,0.00
2012-1-21,50.0,45.6,42.0,-99.9,-99.9,-99.9,0,0,100,0.00,40.00,39,22,46,0.00
2012-1-22,49.0,45.3,41.0,-99.9,-99.9,-99.9,0,0,100,0.00,40.00,51,17,67,0.00
2012-1-23,54.0,41.7,36.0,-99.9,-99.9,-99.9,0,0,100,0.00,40.00,13,8,15,0.00
2012-1-24,51.0,47.0,41.0,-99.9,-99.9,-99.9,0,0,100,0.00,40.00,47,28,63,0.00
2012-1-25,51.0,49.6,48.0,-99.9,-99.9,-99.9,0,0,100,0.00,40.00,28,16,34,0.00
2012-1-26,55.0,45.7,37.0,-99.9,-99.9,-99.9,0,0,100,0.00,40.00,28,12,33,0.00
2012-1-27,54.0,40.7,35.0,-99.9,-99.9,-99.9,0,0,100,0.00,40.00,23,12,27,0.00
2012-1-28,57.0,44.5,38.0,-99.9,-99.9,-99.9,0,0,100,0.00,40.00,17,10,19,0.00
2012-1-29,51.0,48.1,44.0,-99.9,-99.9,-99.9,0,0,100,0.00,40.00,38,20,47,0.00
2012-1-30,49.0,46.5,45.0,-99.9,-99.9,-99.9,0,0,100,0.00,40.00,20,7,22,0.00
2012-1-31,52.0,46.8,45.0,-99.9,-99.9,-99.9,0,0,100,0.00,40.00,16,7,19,0.00
2012-2-1,51.0,46.3,43.0,-99.9,-99.9,-99.9,0,0,100,0.00,40.00,26,7,31,0.00
2012-2-2,55.0,47.6,42.0,-99.9,-99.9,-99.9,0,0,100,0.00,40.00,27,18,32,0.00
2012-2-3,61.0,50.9,45.0,-99.9,-99.9,-99.9,0,0,100,0.00,40.00,30,18,37,0.00
2012-2-4,65.0,49.6,43.0,-99.9,-99.9,-99.9,0,0,100,0.00,40.00,24,13,30,0.00
2012-2-5,58.0,49.0,43.0,-99.9,-99.9,-99.9,0,0,100,0.00,40.00,26,13,30,0.00
2012-2-6,60.0,52.1,47.0,-99.9,-99.9,-99.9,0,0,100,0.00,40.00,30,23,35,0.00
2012-2-7,54.0,50.3,46.0,-99.9,-99.9,-99.9,0,0,100,0.00,40.00,31,14,37,0.00
2012-2-8,51.0,48.7,46.0,-99.9,-99.9,-99.9,0,0,100,0.00,40.00,19,10,27,0.00
2012-2-9,61.0,53.5,50.0,-99.9,-99.9,-99.9,0,0,100,0.00,40.00,21,11,29,0.00
2012-2-10,56.0,49.8,46.0,-99.9,-99.9,-99.9,0,0,100,0.00,40.00,32,13,48,0.00
2012-2-11,55.0,45.9,40.0,-99.9,-99.9,-99.9,0,0,100,0.00,40.00,11,5,15,0.00
2012-2-12,45.0,41.2,38.0,-99.9,-99.9,-99.9,0,0,100,0.00,40.00,12,7,16,0.00
2012-2-13,51.0,44.0,41.0,-99.9,-99.9,-99.9,0,0,100,0.00,40.00,16,6,20,0.00
2012-2-14,47.0,42.2,38.0,-99.9,-99.9,-99.9,0,0,100,0.00,40.00,30,11,41,0.00
2012-2-15,58.0,41.9,36.0,-99.9,-99.9,-99.9,0,0,100,0.00,40.00,13,8,16,0.00
2012-2-16,46.0,43.3,40.0,-99.9,-99.9,-99.9,0,0,100,0.00,40.00,14,7,19,0.00
2012-2-17,49.0,47.2,45.0,-99.9,-99.9,-99.9,0,0,100,0.00,40.00,34,17,40,0.00
2012-2-18,50.0,45.5,41.0,-99.9,-99.9,-99.9,0,0,100,0.00,40.00,34,19,40,0.00
2012-2-19,54.0,42.9,37.0,-99.9,-99.9,-99.9,0,0,100,0.00,40.00,18,10,20,0.00
2012-2-20,48.0,46.8,41.0,-99.9,-99.9,-99.9,0,0,100,0.00,40.00,26,17,32,0.00
2012-2-21,49.0,48.1,48.0,-99.9,-99.9,-99.9,0,0,100,0.00,40.00,28,22,33,0.00
2012-2-22,52.0,48.2,45.0,-99.9,-99.9,-99.9,0,0,100,0.00,40.00,31,17,35,0.00
2012-2-23,51.0,44.4,39.0,-99.9,-99.9,-99.9,0,0,100,0.00,40.00,17,5,23,0.00
2012-2-24,49.0,43.7,38.0,-99.9,-99.9,-99.9,0,0,100,0.00,40.00,40,20,51,0.00
2012-2-25,49.0,42.6,38.0,-99.9,-99.9,-99.9,0,0,100,0.00,40.00,35,19,53,0.00
2012-2-26,48.0,40.8,37.0,-99.9,-99.9,-99.9,0,0,100,0.00,40.00,20,6,25,0.00
2012-2-27,50.0,40.0,34.0,-99.9,-99.9,-99.9,0,0,100,0.00,40.00,15,7,19,0.00
2012-2-28,44.0,39.2,36.0,-99.9,-99.9,-99.9,0,0,100,0.00,40.00,39,15,46,0.00
2012-2-29,45.0,41.3,37.0,-99.9,-99.9,-99.9,0,0,100,0.00,40.00,52,29,62,0.00
2012-3-1,53.0,43.0,38.0,-99.9,-99.9,-99.9,0,0,100,0.00,40.00,26,9,34,0.00
2012-3-2,50.0,43.2,37.0,-99.9,-99.9,-99.9,0,0,100,0.00,40.00,19,10,22,0.00
2012-3-3,55.0,47.4,44.0,-99.9,-99.9,-99.9,0,0,100,0.00,40.00,15,5,17,0.00
2012-3-4,56.0,46.8,40.0,-99.9,-99.9,-99.9,0,0,100,0.00,40.00,19,8,24,0.00
2012-3-5,47.0,43.8,38.0,-99.9,-99.9,-99.9,0,0,100,0.00,40.00,41,15,45,0.00
2012-3-6,50.0,42.0,37.0,-99.9,-99.9,-99.9,0,0,100,0.00,40.00,24,12,45,0.00
2012-3-7,53.0,41.0,32.0,-99.9,-99.9,-99.9,0,0,100,0.00,40.00,19,8,22,0.00
2012-3-8,58.0,48.6,43.0,-99.9,-99.9,-99.9,0,0,100,0.00,40.00,25,17,32,0.00
2012-3-9,54.0,48.2,46.0,-99.9,-99.9,-99.9,0,0,100,0.00,40.00,32,18,38,0.00
2012-3-10,49.0,45.4,44.0,-99.9,-99.9,-99.9,0,0,100,0.00,40.00,32,18,41,0.00
2012-3-11,47.0,43.5,40.0,-99.9,-99.9,-99.9,0,0,100,0.00,40.00,34,22,55,0.00
2012-3-12,48.0,42.2,33.0,-99.9,-99.9,-99.9,0,0,100,0.00,40.00,53,25,77,0.00
2012-3-13,45.0,39.4,33.0,-99.9,-99.9,-99.9,0,0,100,0.00,40.00,44,18,55,0.00
2012-3-14,49.0,44.7,38.0,-99.9,-99.9,-99.9,0,0,100,0.00,40.00,38,21,57,0.00
2012-3-15,50.0,48.8,47.0,-99.9,-99.9,-99.9,0,0,100,0.00,40.00,48,30,67,0.00
2012-3-16,53.0,46.2,41.0,-99.9,-99.9,-99.9,0,0,100,0.00,40.00,35,14,39,0.00
2012-3-17,51.0,43.6,41.0,-99.9,-99.9,-99.9,0,0,100,0.00,40.00,26,9,29,0.00
2012-3-18,49.0,41.8,38.0,-99.9,-99.9,-99.9,0,0,100,0.00,40.00,22,9,34,0.00
2012-3-19,44.0,40.4,36.0,-99.9,-99.9,-99.9,0,0,100,0.00,40.00,31,8,42,0.00
2012-3-20,47.0,44.5,41.0,-99.9,-99.9,-99.9,0,0,100,0.00,40.00,46,25,64,0.00
2012-3-21,40.0,36.5,35.0,-99.9,-99.9,-99.9,0,0,100,0.00,40.00,14,8,17,0.00
2012-3-22,46.0,40.6,36.0,-99.9,-99.9,-99.9,0,0,100,0.00,40.00,17,8,24,0.00
2012-3-23,56.0,45.1,36.0,-99.9,-99.9,-99.9,0,0,100,0.00,40.00,20,11,24,0.00
2012-3-24,51.0,47.9,45.0,-99.9,-99.9,-99.9,0,0,100,0.00,40.00,26,13,32,0.00
2012-3-25,47.0,44.6,42.0,-99.9,-99.9,-99.9,0,0,100,0.00,40.00,24,6,27,0.00
2012-3-26,53.0,44.7,37.0,-99.9,-99.9,-99.9,0,0,100,0.00,40.00,26,10,29,0.00
2012-3-27,54.0,48.6,45.0,-99.9,-99.9,-99.9,0,0,100,0.00,40.00,37,12,57,0.00
2012-3-28,50.0,46.9,43.0,-99.9,-99.9,-99.9,0,0,100,0.00,40.00,43,24,56,0.00
2012-3-29,51.0,49.4,47.0,-99.9,-99.9,-99.9,0,0,100,0.00,40.00,52,34,72,0.00
2012-3-30,50.0,46.4,40.0,-99.9,-99.9,-99.9,0,0,100,0.00,40.00,40,21,50,0.00
2012-3-31,53.0,45.8,42.0,-99.9,-99.9,-99.9,0,0,100,0.00,40.00,39,18,60,0.00
2012-4-1,51.0,45.8,42.0,-99.9,-99.9,-99.9,0,0,100,0.00,40.00,39,22,46,0.00
2012-4-2,59.0,49.4,43.0,-99.9,-99.9,-99.9,0,0,100,0.00,40.00,24,13,34,0.00
2012-4-3,52.0,47.6,41.0,-99.9,-99.9,-99.9,0,0,100,0.00,40.00,34,12,39,0.00
2012-4-4,50.0,43.4,40.0,-99.9,-99.9,-99.9,0,0,100,0.00,40.00,22,9,25,0.00
2012-4-5,52.0,43.9,38.0,-99.9,-99.9,-99.9,0,0,100,0.00,40.00,14,6,17,0.00
2012-4-6,52.0,43.9,37.0,-99.9,-99.9,-99.9,0,0,100,0.00,40.00,15,7,18,0.00
2012-4-7,60.0,48.5,41.0,-99.9,-99.9,-99.9,0,0,100,0.00,40.00,24,12,28,0.00
2012-4-8,63.0,52.6,47.0,-99.9,-99.9,-99.9,0,0,100,0.00,40.00,16,8,18,0.00
2012-4-9,58.0,51.0,47.0,-99.9,-99.9,-99.9,0,0,100,0.00,40.00,14,7,17,0.00
2012-4-10,56.0,50.8,48.0,-99.9,-99.9,-99.9,0,0,100,0.00,40.00,22,7,34,0.00
2012-4-11,55.0,49.9,47.0,-99.9,-99.9,-99.9,0,0,100,0.00,40.00,24,9,29,0.00
2012-4-12,53.0,47.6,43.0,-99.9,-99.9,-99.9,0,0,100,0.00,40.00,32,16,41,0.00
2012-4-13,52.0,47.8,44.0,-99.9,-99.9,-99.9,0,0,100,0.00,40.00,12,5,17,0.00
2012-4-14,56.0,50.2,46.0,-99.9,-99.9,-99.9,0,0,100,0.00,40.00,14,6,21,0.00
2012-4-15,54.0,47.4,41.0,-99.9,-99.9,-99.9,0,0,100,0.00,40.00,27,9,35,0.00
2012-4-16,54.0,50.3,45.0,-99.9,-99.9,-99.9,0,0,100,0.00,40.00,36,11,44,0.00
2012-4-17,52.0,45.3,40.0,-99.9,-99.9,-99.9,0,0,100,0.00,40.00,26,11,33,0.00
2012-4-18,56.0,50.5,46.0,-99.9,-99.9,-99.9,0,0,100,0.00,40.00,35,11,44,0.00
2012-4-19,53.0,50.0,46.0,-99.9,-99.9,-99.9,0,0,100,0.00,40.00,29,17,37,0.00
2012-4-20,61.0,53.0,50.0,-99.9,-99.9,-99.9,0,0,100,0.00,40.00,24,11,32,0.00
2012-4-21,64.0,55.5,48.0,-99.9,-99.9,-99.9,0,0,100,0.00,40.00,16,7,21,0.00
2012-4-22,61.0,55.0,49.0,-99.9,-99.9,-99.9,0,0,100,0.00,40.00,23,10,29,0.00
2012-4-23,57.0,53.1,49.0,-99.9,-99.9,-99.9,0,0,100,0.00,40.00,26,10,37,0.00
2012-4-24,57.0,52.8,51.0,-99.9,-99.9,-99.9,0,0,100,0.00,40.00,32,12,38,0.00
2012-4-25,53.0,52.0,50.0,-99.9,-99.9,-99.9,0,0,100,0.00,40.00,29,20,39,0.00
2012-4-26,54.0,48.9,46.0,-99.9,-99.9,-99.9,0,0,100,0.00,40.00,40,18,47,0.00
2012-4-27,53.0,49.6,46.0,-99.9,-99.9,-99.9,0,0,100,0.00,40.00,23,12,28,0.00
2012-4-28,59.0,52.0,47.0,-99.9,-99.9,-99.9,0,0,100,0.00,40.00,11,6,16,0.00
2012-4-29,59.0,53.6,50.0,-99.9,-99.9,-99.9,0,0,100,0.00,40.00,20,9,23,0.00
2012-4-30,52.0,49.7,46.0,-99.9,-99.9,-99.9,0,0,100,0.00,40.00,35,20,40,0.00
2012-5-1,52.0,48.1,45.0,-99.9,-99.9,-99.9,0,0,100,0.00,40.00,26,12,29,0.00
2012-5-2,51.0,47.0,43.0,-99.9,-99.9,-99.9,0,0,100,0.00,40.00,19,7,20,0.00
2012-5-3,53.0,49.3,46.0,-99.9,-99.9,-99.9,0,0,100,0.00,40.00,42,20,47,0.00
2012-5-4,54.0,48.3,45.0,-99.9,-99.9,-99.9,0,0,100,0.00,40.00,17,7,22,0.00
2012-5-5,56.0,48.3,43.0,-99.9,-99.9,-99.9,0,0,100,0.00,40.00,17,7,23,0.00
2012-5-6,58.0,51.2,44.0,-99.9,-99.9,-99.9,0,0,100,0.00,40.00,25,12,33,0.00
2012-5-7,63.0,54.5,46.0,-99.9,-99.9,-99.9,0,0,100,0.00,40.00,22,10,26,0.00
2012-5-8,60.0,54.3,50.0,-99.9,-99.9,-99.9,0,0,100,0.00,40.00,26,14,35,0.00
2012-5-9,56.0,51.2,47.0,-99.9,-99.9,-99.9,0,0,100,0.00,40.00,26,15,32,0.00
2012-5-10,55.0,48.8,40.0,-99.9,-99.9,-99.9,0,0,100,0.00,40.00,30,14,40,0.00
2012-5-11,58.0,51.4,41.0,-99.9,-99.9,-99.9,0,0,100,0.00,40.00,28,13,34,0.00
2012-5-12,65.0,54.2,47.0,-99.9,-99.9,-99.9,0,0,100,0.00,40.00,22,10,27,0.00
2012-5-13,62.0,54.0,47.0,-99.9,-99.9,-99.9,0,0,100,0.00,40.00,26,11,34,0.00
2012-5-14,55.0,52.1,49.0,-99.9,-99.9,-99.9,0,0,100,0.00,40.00,19,15,27,0.00
2012-5-15,61.0,54.6,51.0,-99.9,-99.9,-99.9,0,0,100,0.00,40.00,22,9,29,0.00
2012-5-16,58.0,53.3,48.0,-99.9,-99.9,-99.9,0,0,100,0.00,40.00,30,16,37,0.00
2012-5-17,59.0,52.8,47.0,-99.9,-99.9,-99.9,0,0,100,0.00,40.00,17,8,22,0.00
2012-5-18,59.0,51.0,44.0,-99.9,-99.9,-99.9,0,0,100,0.00,40.00,22,9,26,0.00
2012-5-19,59.0,51.1,44.0,-99.9,-99.9,-99.9,0,0,100,0.00,40.00,14,4,16,0.00
2012-5-20,56.0,52.7,51.0,-99.9,-99.9,-99.9,0,0,100,0.00,40.00,16,6,20,0.00
2012-5-21,57.0,52.4,51.0,-99.9,-99.9,-99.9,0,0,100,0.00,40.00,31,16,45,0.00
2012-5-22,54.0,50.7,49.0,-99.9,-99.9,-99.9,0,0,100,0.00,40.00,40,20,57,0.00
2012-5-23,54.0,50.4,49.0,-99.9,-99.9,-99.9,0,0,100,0.00,40.00,21,15,26,0.00
2012-5-24,56.0,51.8,49.0,-99.9,-99.9,-99.9,0,0,100,0.00,40.00,16,9,24,0.00
2012-5-25,60.0,54.4,51.0,-99.9,-99.9,-99.9,0,0,100,0.00,40.00,22,12,33,0.00
2012-5-26,56.0,53.9,52.0,-99.9,-99.9,-99.9,0,0,100,0.00,40.00,12,6,13,0.00
2012-5-27,57.0,52.5,50.0,-99.9,-99.9,-99.9,0,0,100,0.00,40.00,21,12,24,0.00
2012-5-28,60.0,54.3,50.0,-99.9,-99.9,-99.9,0,0,100,0.00,40.00,12,6,16,0.00
2012-5-29,61.0,53.3,45.0,-99.9,-99.9,-99.9,0,0,100,0.00,40.00,17,8,22,0.00
2012-5-30,61.0,54.0,47.0,-99.9,-99.9,-99.9,0,0,100,0.00,40.00,13,5,16,0.00
2012-5-31,64.0,58.1,54.0,-99.9,-99.9,-99.9,0,0,100,0.00,40.00,9,4,16,0.00
2012-6-1,59.0,56.8,54.0,-99.9,-99.9,-99.9,0,0,100,0.00,40.00,12,5,15,0.00
2012-6-2,62.0,56.3,53.0,-99.9,-99.9,-99.9,0,0,100,0.00,40.00,14,7,19,0.00
2012-6-3,62.0,54.5,50.0,-99.9,-99.9,-99.9,0,0,100,0.00,40.00,17,7,21,0.00
2012-6-4,54.0,51.6,49.0,-99.9,-99.9,-99.9,0,0,100,0.00,40.00,25,8,35,0.00
2012-6-5,59.0,51.7,47.0,-99.9,-99.9,-99.9,0,0,100,0.00,40.00,14,7,26,0.00
2012-6-6,61.0,52.7,45.0,-99.9,-99.9,-99.9,0,0,100,0.00,40.00,16,10,19,0.00
2012-6-7,59.0,53.6,51.0,-99.9,-99.9,-99.9,0,0,100,0.00,40.00,34,15,40,0.00
2012-6-8,55.0,50.5,47.0,-99.9,-99.9,-99.9,0,0,100,0.00,40.00,27,13,34,0.00
2012-6-9,60.0,52.4,44.0,-99.9,-99.9,-99.9,0,0,100,0.00,40.00,12,6,14,0.00
2012-6-10,61.0,54.3,46.0,-99.9,-99.9,-99.9,0,0,100,0.00,40.00,21,9,24,0.00
2012-6-11,64.0,56.2,49.0,-99.9,-99.9,-99.9,0,0,100,0.00,40.00,12,5,16,0.00
2012-6-12,59.0,56.5,52.0,-99.9,-99.9,-99.9,0,0,100,0.00,40.00,19,9,23,0.00
2012-6-13,62.0,55.9,52.0,-99.9,-99.9,-99.9,0,0,100,0.00,40.00,26,13,32,0.00
2012-6-14,60.0,54.2,47.0,-99.9,-99.9,-99.9,0,0,100,0.00,40.00,20,10,24,0.00
2012-6-15,63.0,56.2,48.0,-99.9,-99.9,-99.9,0,0,100,0.00,40.00,19,9,23,0.00
2012-6-16,66.0,58.6,54.0,-99.9,-99.9,-99.9,0,0,100,0.00,40.00,17,5,22,0.00
2012-6-17,61.0,57.3,54.0,-99.9,-99.9,-99.9,0,0,100,0.00,40.00,14,7,21,0.00
2012-6-18,62.0,55.4,52.0,-99.9,-99.9,-99.9,0,0,100,0.00,40.00,15,7,26,0.00
2012-6-19,61.0,55.6,51.0,-99.9,-99.9,-99.9,0,0,100,0.00,40.00,14,7,18,0.00
2012-6-20,64.0,56.5,47.0,-99.9,-99.9,-99.9,0,0,100,0.00,40.00,12,9,19,0.00
2012-6-21,65.0,58.9,54.0,-99.9,-99.9,-99.9,0,0,100,0.00,40.00,12,12,19,0.00
2012-6-22,57.0,54.1,52.0,-99.9,-99.9,-99.9,0,0,100,0.00,40.00,12,12,19,0.00
2012-6-23,60.0,54.2,50.0,-99.9,-99.9,-99.9,0,0,100,0.00,40.00,12,12,19,0.00
2012-6-24,62.0,56.2,51.0,-99.9,-99.9,-99.9,0,0,100,0.00,40.00,12,12,19,0.00
2012-6-25,62.0,56.1,52.0,-99.9,-99.9,-99.9,0,0,100,0.00,40.00,12,12,19,0.00
2012-6-26,63.0,57.8,52.0,-99.9,-99.9,-99.9,0,0,100,0.00,40.00,12,12,19,0.00
2012-6-27,67.0,59.0,51.0,-99.9,-99.9,-99.9,0,0,100,0.00,40.00,12,12,19,0.00
2012-6-28,62.0,57.5,53.0,-99.9,-99.9,-99.9,0,0,100,0.00,40.00,12,12,19,0.00
2012-6-29,64.0,60.8,59.0,-99.9,-99.9,-99.9,0,0,100,0.00,40.00,12,12,19,0.00
2012-6-30,63.0,60.5,58.0,-99.9,-99.9,-99.9,0,0,100,0.00,40.00,12,12,19,0.00
2012-7-1,64.0,59.8,57.0,-99.9,-99.9,-99.9,0,0,100,0.00,40.00,12,12,19,0.00
2012-7-2,66.0,59.6,55.0,-99.9,-99.9,-99.9,0,0,100,0.00,40.00,12,12,19,0.00
2012-7-3,66.0,58.9,55.0,-99.9,-99.9,-99.9,0,0,100,0.00,40.00,12,12,19,0.00
2012-7-4,63.0,56.5,49.0,-99.9,-99.9,-99.9,0,0,100,0.00,40.00,12,12,19,0.00
2012-7-5,65.0,57.7,51.0,-99.9,-99.9,-99.9,0,0,100,0.00,40.00,12,12,19,0.00
2012-7-6,65.0,59.3,55.0,-99.9,-99.9,-99.9,0,0,100,0.00,40.00,12,12,19,0.00
2012-7-7,63.0,58.4,52.0,-99.9,-99.9,-99.9,0,0,100,0.00,40.00,12,12,19,0.00
2012-7-8,64.0,58.3,56.0,-99.9,-99.9,-99.9,0,0,100,0.00,40.00,12,12,19,0.00
2012-7-9,64.0,57.9,54.0,-99.9,-99.9,-99.9,0,0,100,0.00,40.00,12,12,19,0.00
2012-7-10,63.0,58.4,54.0,-99.9,-99.9,-99.9,0,0,100,0.00,40.00,12,12,19,0.00
2012-7-11,63.0,57.3,54.0,-99.9,-99.9,-99.9,0,0,100,0.00,40.00,12,12,19,0.00
2012-7-12,63.0,57.8,55.0,-99.9,-99.9,-99.9,0,0,100,0.00,40.00,12,8,19,0.00
2012-7-13,66.0,60.5,57.0,-99.9,-99.9,-99.9,0,0,100,0.00,40.00,17,9,22,0.00
2012-7-14,62.0,58.7,56.0,-99.9,-99.9,-99.9,0,0,100,0.00,40.00,9,5,11,0.00
2012-7-15,62.0,58.0,55.0,-99.9,-99.9,-99.9,0,0,100,0.00,40.00,12,4,17,0.00
2012-7-16,66.0,59.3,54.0,-99.9,-99.9,-99.9,0,0,100,0.00,40.00,15,5,19,0.00
2012-7-17,60.0,57.5,54.0,-99.9,-99.9,-99.9,0,0,100,0.00,40.00,21,9,23,0.00
2012-7-18,64.0,58.3,54.0,-99.9,-99.9,-99.9,0,0,100,0.00,40.00,15,7,19,0.00
2012-7-19,67.0,60.9,57.0,-99.9,-99.9,-99.9,0,0,100,0.00,40.00,22,7,24,0.00
2012-7-20,60.0,57.7,55.0,-99.9,-99.9,-99.9,0,0,100,0.00,40.00,21,13,29,0.00
2012-7-21,68.0,60.9,56.0,-99.9,-99.9,-99.9,0,0,100,0.00,40.00,21,8,25,0.00
2012-7-22,68.0,61.6,58.0,-99.9,-99.9,-99.9,0,0,100,0.00,40.00,14,7,19,0.00
2012-7-23,67.0,59.9,52.0,-99.9,-99.9,-99.9,0,0,100,0.00,40.00,32,14,41,0.00
2012-7-24,65.0,58.3,52.0,-99.9,-99.9,-99.9,0,0,100,0.00,40.00,24,13,32,0.00
2012-7-25,64.0,58.7,55.0,-99.9,-99.9,-99.9,0,0,100,0.00,40.00,20,10,24,0.00
2012-7-26,64.0,58.3,55.0,-99.9,-99.9,-99.9,0,0,100,0.00,40.00,8,3,11,0.00
2012-7-27,66.0,59.3,54.0,-99.9,-99.9,-99.9,0,0,100,0.00,40.00,9,4,11,0.00
2012-7-28,68.0,61.4,57.0,-99.9,-99.9,-99.9,0,0,100,0.00,40.00,13,6,19,0.00
2012-7-29,68.0,61.5,58.0,-99.9,-99.9,-99.9,0,0,100,0.00,40.00,15,8,19,0.00
2012-7-30,68.0,61.7,58.0,-99.9,-99.9,-99.9,0,0,100,0.00,40.00,18,9,24,0.00
2012-7-31,66.0,59.7,54.0,-99.9,-99.9,-99.9,0,0,100,0.00,40.00,24,12,30,0.00
2012-8-1,64.0,59.2,55.0,-99.9,-99.9,-99.9,0,0,100,0.00,40.00,24,12,31,0.00
2012-8-2,66.0,58.4,52.0,-99.9,-99.9,-99.9,0,0,100,0.00,40.00,24,11,34,0.00
2012-8-3,62.0,58.5,55.0,-99.9,-99.9,-99.9,0,0,100,0.00,40.00,23,11,28,0.00
2012-8-4,80.0,59.8,52.0,-99.9,-99.9,-99.9,0,0,100,0.00,40.00,24,10,28,0.00
2012-8-5,64.0,57.5,52.0,-99.9,-99.9,-99.9,0,0,100,0.00,40.00,26,12,30,0.00
2012-8-6,65.0,58.0,55.0,-99.9,-99.9,-99.9,0,0,100,0.00,40.00,17,11,21,0.00
2012-8-7,66.0,59.8,58.0,-99.9,-99.9,-99.9,0,0,100,0.00,40.00,13,5,14,0.00
2012-8-8,70.0,62.5,58.0,-99.9,-99.9,-99.9,0,0,100,0.00,40.00,16,6,19,0.00
2012-8-9,69.0,61.2,55.0,-99.9,-99.9,-99.9,0,0,100,0.00,40.00,22,11,32,0.00
2012-8-10,66.0,61.1,58.0,-99.9,-99.9,-99.9,0,0,100,0.00,40.00,23,13,30,0.00
2012-8-11,63.0,57.3,53.0,-99.9,-99.9,-99.9,0,0,100,0.00,40.00,32,13,38,0.00
2012-8-12,63.0,56.8,52.0,-99.9,-99.9,-99.9,0,0,100,0.00,40.00,29,13,35,0.00
2012-8-13,63.0,58.1,55.0,-99.9,-99.9,-99.9,0,0,100,0.00,40.00,29,15,35,0.00
2012-8-14,65.0,57.1,50.0,-99.9,-99.9,-99.9,0,0,100,0.00,40.00,27,12,35,0.00
2012-8-15,63.0,56.1,51.0,-99.9,-99.9,-99.9,0,0,100,0.00,40.00,23,11,29,0.00
2012-8-16,58.0,54.6,52.0,-99.9,-99.9,-99.9,0,0,100,0.00,40.00,21,10,28,0.00
2012-8-17,61.0,54.2,51.0,-99.9,-99.9,-99.9,0,0,100,0.00,40.00,15,7,17,0.00
2012-8-18,59.0,56.0,54.0,-99.9,-99.9,-99.9,0,0,100,0.00,40.00,13,4,16,0.00
2012-8-19,63.0,57.5,54.0,-99.9,-99.9,-99.9,0,0,100,0.00,40.00,10,4,12,0.00
2012-8-20,69.0,59.2,51.0,-99.9,-99.9,-99.9,0,0,100,0.00,40.00,18,8,22,0.00
2012-8-21,71.0,61.2,55.0,-99.9,-99.9,-99.9,0,0,100,0.00,40.00,21,6,25,0.00
2012-8-22,67.0,60.0,52.0,-99.9,-99.9,-99.9,0,0,100,0.00,40.00,24,12,34,0.00
2012-8-23,68.0,60.7,54.0,-99.9,-99.9,-99.9,0,0,100,0.00,40.00,23,12,31,0.00
2012-8-24,68.0,58.2,50.0,-99.9,-99.9,-99.9,0,0,100,0.00,40.00,31,13,38,0.00
2012-8-25,64.0,55.1,48.0,-99.9,-99.9,-99.9,0,0,100,0.00,40.00,15,6,17,0.00
2012-8-26,60.0,55.6,53.0,-99.9,-99.9,-99.9,0,0,100,0.00,40.00,29,15,39,0.00
2012-8-27,64.0,56.2,51.0,-99.9,-99.9,-99.9,0,0,100,0.00,40.00,13,7,21,0.00
2012-8-28,61.0,56.8,53.0,-99.9,-99.9,-99.9,0,0,100,0.00,40.00,15,6,18,0.00
2012-8-29,68.0,60.1,56.0,-99.9,-99.9,-99.9,0,0,100,0.00,40.00,17,8,19,0.00
2012-8-30,67.0,58.8,51.0,-99.9,-99.9,-99.9,0,0,100,0.00,40.00,21,11,29,0.00
2012-8-31,66.0,59.2,54.0,-99.9,-99.9,-99.9,0,0,100,0.00,40.00,19,10,26,0.00
2012-9-1,66.0,57.3,50.0,-99.9,-99.9,-99.9,0,0,100,0.00,40.00,17,8,24,0.00
2012-9-2,66.0,57.2,48.0,-99.9,-99.9,-99.9,0,0,100,0.00,40.00,20,8,26,0.00
2012-9-3,66.0,56.9,50.0,-99.9,-99.9,-99.9,0,0,100,0.00,40.00,32,12,38,0.00
2012-9-4,63.0,56.9,51.0,-99.9,-99.9,-99.9,0,0,100,0.00,40.00,28,12,33,0.00
2012-9-5,60.0,55.3,51.0,-99.9,-99.9,-99.9,0,0,100,0.00,40.00,22,10,30,0.00
2012-9-6,66.0,57.3,54.0,-99.9,-99.9,-99.9,0,0,100,0.00,40.00,15,6,20,0.00
2012-9-7,60.0,54.0,51.0,-99.9,-99.9,-99.9,0,0,100,0.00,40.00,16,6,19,0.00
2012-9-8,56.0,54.3,52.0,-99.9,-99.9,-99.9,0,0,100,0.00,40.00,17,10,21,0.00
2012-9-9,59.0,56.3,53.0,-99.9,-99.9,-99.9,0,0,100,0.00,40.00,15,7,17,0.00
2012-9-10,67.0,59.5,54.0,-99.9,-99.9,-99.9,0,0,100,0.00,40.00,23,12,28,0.00
2012-9-11,66.0,56.1,48.0,-99.9,-99.9,-99.9,0,0,100,0.00,40.00,29,12,38,0.00
2012-9-12,69.0,58.2,49.0,-99.9,-99.9,-99.9,0,0,100,0.00,40.00,21,8,24,0.00
2012-9-13,71.0,59.4,48.0,-99.9,-99.9,-99.9,0,0,100,0.00,40.00,17,10,19,0.00
2012-9-14,54.0,50.6,46.0,-99.9,-99.9,-99.9,0,0,100,0.00,40.00,14,4,17,0.00
2012-9-15,65.0,56.7,51.0,-99.9,-99.9,-99.9,0,0,100,0.00,40.00,23,8,32,0.00
2012-9-16,58.0,52.5,47.0,-99.9,-99.9,-99.9,0,0,100,0.00,40.00,26,9,27,0.00
2012-9-17,72.0,54.8,48.0,-99.9,-99.9,-99.9,0,0,100,0.00,40.00,16,8,20,0.00
2012-9-18,56.0,51.2,47.0,-99.9,-99.9,-99.9,0,0,100,0.00,40.00,16,10,21,0.00
2012-9-19,63.0,56.7,54.0,-99.9,-99.9,-99.9,0,0,100,0.00,40.00,6,2,10,0.00
2012-9-20,56.0,54.3,53.0,-99.9,-99.9,-99.9,0,0,100,0.00,40.00,11,6,15,0.00
2012-9-21,63.0,55.4,51.0,-99.9,-99.9,-99.9,0,0,100,0.00,40.00,8,2,9,0.00
2012-9-22,65.0,54.1,46.0,-99.9,-99.9,-99.9,0,0,100,0.00,40.00,14,7,18,0.00
2012-9-23,66.0,57.6,53.0,-99.9,-99.9,-99.9,0,0,100,0.00,40.00,21,7,27,0.00
2012-9-24,65.0,55.9,49.0,-99.9,-99.9,-99.9,0,0,100,0.00,40.00,17,8,24,0.00
2012-9-25,63.0,56.3,50.0,-99.9,-99.9,-99.9,0,0,100,0.00,40.00,22,10,31,0.00
2012-9-26,61.0,51.4,45.0,-99.9,-99.9,-99.9,0,0,100,0.00,40.00,24,8,28,0.00
2012-9-27,70.0,54.9,48.0,-99.9,-99.9,-99.9,0,0,100,0.00,40.00,21,8,26,0.00
2012-9-28,63.0,54.7,51.0,-99.9,-99.9,-99.9,0,0,100,0.00,40.00,19,5,26,0.00
2012-9-29,62.0,54.8,51.0,-99.9,-99.9,-99.9,0,0,100,0.00,40.00,28,13,36,0.00
2012-9-30,51.0,49.0,47.0,-99.9,-99.9,-99.9,0,0,100,0.00,40.00,6,3,8,0.00
2012-10-1,67.0,61.1,55.0,-99.9,-99.9,-99.9,0,0,100,0.00,40.00,30,21,40,0.00
2012-10-2,61.0,54.5,48.0,-99.9,-99.9,-99.9,0,0,100,0.00,40.00,28,16,33,0.00
2012-10-3,72.0,57.0,44.0,-99.9,-99.9,-99.9,0,0,100,0.00,40.00,21,8,26,0.00
2012-10-4,69.0,58.6,48.0,-99.9,-99.9,-99.9,0,0,100,0.00,40.00,21,7,27,0.00
2012-10-5,61.0,50.6,44.0,-99.9,-99.9,-99.9,0,0,100,0.00,40.00,9,4,11,0.00
2012-10-6,66.0,52.7,45.0,-99.9,-99.9,-99.9,0,0,100,0.00,40.00,21,8,23,0.00
2012-10-7,63.0,51.0,44.0,-99.9,-99.9,-99.9,0,0,100,0.00,40.00,9,4,12,0.00
2012-10-8,60.0,51.5,47.0,-99.9,-99.9,-99.9,0,0,100,0.00,40.00,14,7,17,0.00
2012-10-9,64.0,54.8,50.0,-99.9,-99.9,-99.9,0,0,100,0.00,40.00,18,6,22,0.00
2012-10-10,61.0,50.4,46.0,-99.9,-99.9,-99.9,0,0,100,0.00,40.00,15,6,20,0.00
2012-10-11,63.0,49.1,42.0,-99.9,-99.9,-99.9,0,0,100,0.00,40.00,8,4,9,0.00
2012-10-12,52.0,51.1,50.0,-99.9,-99.9,-99.9,0,0,100,0.00,40.00,27,14,38,0.00
2012-10-13,57.0,53.8,52.0,-99.9,-99.9,-99.9,0,0,100,0.00,40.00,27,19,37,0.00
2012-10-14,58.0,55.7,54.0,-99.9,-99.9,-99.9,0,0,100,0.00,40.00,37,22,49,0.00
2012-10-15,58.0,55.0,53.0,-99.9,-99.9,-99.9,0,0,100,0.00,40.00,41,27,56,0.00
2012-10-16,65.0,55.0,49.0,-99.9,-99.9,-99.9,0,0,100,0.00,40.00,29,6,35,0.00
2012-10-17,65.0,52.3,45.0,-99.9,-99.9,-99.9,0,0,100,0.00,40.00,18,9,21,0.00
2012-10-18,76.0,57.4,50.0,-99.9,-99.9,-99.9,0,0,100,0.00,40.00,22,10,26,0.00
2012-10-19,56.0,54.1,52.0,-99.9,-99.9,-99.9,0,0,100,0.00,40.00,30,17,38,0.00
2012-10-20,58.0,51.1,47.0,-99.9,-99.9,-99.9,0,0,100,0.00,40.00,23,12,31,0.00
2012-10-21,52.0,47.4,45.0,-99.9,-99.9,-99.9,0,0,100,0.00,40.00,17,7,26,0.00
2012-10-22,55.0,47.6,45.0,-99.9,-99.9,-99.9,0,0,100,0.00,40.00,28,12,36,0.00
2012-10-23,48.0,45.5,44.0,-99.9,-99.9,-99.9,0,0,100,0.00,40.00,12,8,26,0.00
2012-10-24,53.0,47.4,44.0,-99.9,-99.9,-99.9,0,0,100,0.00,40.00,29,11,35,0.00
2012-10-25,62.0,49.3,42.0,-99.9,-99.9,-99.9,0,0,100,0.00,40.00,16,8,18,0.00
2012-10-26,54.0,51.8,50.0,-99.9,-99.9,-99.9,0,0,100,0.00,40.00,31,15,39,0.00
2012-10-27,55.0,53.4,51.0,-99.9,-99.9,-99.9,0,0,100,0.00,40.00,34,22,47,0.00
2012-10-28,58.0,55.7,54.0,-99.9,-99.9,-99.9,0,0,100,0.00,40.00,32,20,40,0.00
2012-10-29,58.0,55.2,54.0,-99.9,-99.9,-99.9,0,0,100,0.00,40.00,35,18,51,0.00
2012-10-30,59.0,56.7,55.0,-99.9,-99.9,-99.9,0,0,100,0.00,40.00,37,22,50,0.00
2012-10-31,57.0,55.2,53.0,-99.9,-99.9,-99.9,0,0,100,0.00,40.00,33,15,43,0.00
2012-11-1,57.0,54.5,53.0,-99.9,-99.9,-99.9,0,0,100,0.00,40.00,41,23,54,0.00
2012-11-2,55.0,53.0,51.0,-99.9,-99.9,-99.9,0,0,100,0.00,40.00,15,9,17,0.00
2012-11-3,56.0,55.0,53.0,-99.9,-99.9,-99.9,0,0,100,0.00,40.00,27,14,36,0.00
2012-11-4,59.0,57.5,56.0,-99.9,-99.9,-99.9,0,0,100,0.00,40.00,17,7,27,0.00
2012-11-5,64.0,57.9,55.0,-99.9,-99.9,-99.9,0,0,100,0.00,40.00,16,8,18,0.00
2012-11-6,57.0,54.3,52.0,-99.9,-99.9,-99.9,0,0,100,0.00,40.00,15,7,24,0.00
2012-11-7,61.0,51.1,46.0,-99.9,-99.9,-99.9,0,0,100,0.00,40.00,9,4,13,0.00
2012-11-8,51.0,45.2,42.0,-99.9,-99.9,-99.9,0,0,100,0.00,40.00,11,5,12,0.00
2012-11-9,51.0,44.4,39.0,-99.9,-99.9,-99.9,0,0,100,0.00,40.00,20,6,29,0.00
2012-11-10,52.0,42.3,37.0,-99.9,-99.9,-99.9,0,0,100,0.00,40.00,14,9,16,0.00
2012-11-11,51.0,47.2,43.0,-99.9,-99.9,-99.9,0,0,100,0.00,40.00,24,10,38,0.00
2012-11-12,53.0,51.5,50.0,-99.9,-99.9,-99.9,0,0,100,0.00,40.00,34,13,52,0.00
2012-11-13,54.0,50.6,47.0,-99.9,-99.9,-99.9,0,0,100,0.00,40.00,12,7,16,0.00
2012-11-14,61.0,51.3,48.0,-99.9,-99.9,-99.9,0,0,100,0.00,40.00,13,6,16,0.00
2012-11-15,59.0,48.9,45.0,-99.9,-99.9,-99.9,0,0,100,0.00,40.00,13,7,16,0.00
2012-11-16,58.0,50.6,45.0,-99.9,-99.9,-99.9,0,0,100,0.00,40.00,24,11,37,0.00
2012-11-17,56.0,49.5,45.0,-99.9,-99.9,-99.9,0,0,100,0.00,40.00,32,14,53,0.00
2012-11-18,53.0,49.8,45.0,-99.9,-99.9,-99.9,0,0,100,0.00,40.00,49,25,66,0.00
2012-11-19,57.0,54.6,52.0,-99.9,-99.9,-99.9,0,0,100,0.00,40.00,56,37,83,0.00
2012-11-20,54.0,50.9,47.0,-99.9,-99.9,-99.9,0,0,100,0.00,40.00,50,20,67,0.00
2012-11-21,53.0,48.4,42.0,-99.9,-99.9,-99.9,0,0,100,0.00,40.00,45,21,58,0.00
2012-11-22,53.0,46.1,41.0,-99.9,-99.9,-99.9,0,0,100,0.00,40.00,16,11,18,0.00
2012-11-23,57.0,50.3,44.0,-99.9,-99.9,-99.9,0,0,100,0.00,40.00,34,17,48,0.00
2012-11-24,52.0,49.1,42.0,-99.9,-99.9,-99.9,0,0,100,0.00,40.00,9,3,15,0.00
2012-11-25,50.0,43.0,39.0,-99.9,-99.9,-99.9,0,0,100,0.00,40.00,17,8,19,0.00
2012-11-26,52.0,45.6,43.0,-99.9,-99.9,-99.9,0,0,100,0.00,40.00,21,13,27,0.00
2012-11-27,53.0,48.4,45.0,-99.9,-99.9,-99.9,0,0,100,0.00,40.00,17,11,20,0.00
2012-11-28,58.0,51.2,45.0,-99.9,-99.9,-99.9,0,0,100,0.00,40.00,31,17,45,0.00
2012-11-29,58.0,53.1,50.0,-99.9,-99.9,-99.9,0,0,100,0.00,40.00,18,12,34,0.00
2012-11-30,57.0,54.2,49.0,-99.9,-99.9,-99.9,0,0,100,0.00,40.00,45,29,74,0.00
2012-12-1,55.0,51.8,49.0,-99.9,-99.9,-99.9,0,0,100,0.00,40.00,42,24,74,0.00
2012-12-2,54.0,50.5,47.0,-99.9,-99.9,-99.9,0,0,100,0.00,40.00,41,26,49,0.00
2012-12-3,53.0,51.4,49.0,-99.9,-99.9,-99.9,0,0,100,0.00,40.00,40,22,52,0.00
2012-12-4,54.0,51.9,49.0,-99.9,-99.9,-99.9,0,0,100,0.00,40.00,63,27,84,0.00
2012-12-5,54.0,47.7,42.0,-99.9,-99.9,-99.9,0,0,100,0.00,40.00,18,6,23,0.00
2012-12-6,50.0,44.5,41.0,-99.9,-99.9,-99.9,0,0,100,0.00,40.00,22,11,27,0.00
2012-12-7,51.0,48.4,45.0,-99.9,-99.9,-99.9,0,0,100,0.00,40.00,24,15,33,0.00
2012-12-8,48.0,44.2,43.0,-99.9,-99.9,-99.9,0,0,100,0.00,40.00,13,4,14,0.00
2012-12-9,51.0,46.4,43.0,-99.9,-99.9,-99.9,0,0,100,0.00,40.00,15,8,19,0.00
2012-12-10,52.0,49.0,46.0,-99.9,-99.9,-99.9,0,0,100,0.00,40.00,14,5,16,0.00
2012-12-11,48.0,46.4,45.0,-99.9,-99.9,-99.9,0,0,100,0.00,40.00,21,12,35,0.00
2012-12-12,46.0,43.5,40.0,-99.9,-99.9,-99.9,0,0,100,0.00,40.00,19,6,26,0.00
2012-12-13,47.0,40.5,36.0,-99.9,-99.9,-99.9,0,0,100,0.00,40.00,14,9,16,0.00
2012-12-14,53.0,43.3,38.0,-99.9,-99.9,-99.9,0,0,100,0.00,40.00,19,8,26,0.00
2012-12-15,46.0,42.2,38.0,-99.9,-99.9,-99.9,0,0,100,0.00,40.00,37,13,54,0.00
2012-12-16,53.0,47.9,44.0,-99.9,-99.9,-99.9,0,0,100,0.00,40.00,63,34,76,0.00
2012-12-17,50.0,45.1,41.0,-99.9,-99.9,-99.9,0,0,100,0.00,40.00,58,31,72,0.00
2012-12-18,49.0,41.3,38.0,-99.9,-99.9,-99.9,0,0,100,0.00,40.00,29,11,37,0.00
2012-12-19,50.0,44.7,39.0,-99.9,-99.9,-99.9,0,0,100,0.00,40.00,52,26,70,0.00
2012-12-20,47.0,40.2,36.0,-99.9,-99.9,-99.9,0,0,100,0.00,40.00,36,13,53,0.00
2012-12-21,49.0,43.6,39.0,-99.9,-99.9,-99.9,0,0,100,0.00,40.00,22,11,29,0.00
2012-12-22,49.0,42.8,41.0,-99.9,-99.9,-99.9,0,0,100,0.00,40.00,42,14,56,0.00
2012-12-23,46.0,42.4,41.0,-99.9,-99.9,-99.9,0,0,100,0.00,40.00,34,12,39,0.00
2012-12-24,47.0,44.1,41.0,-99.9,-99.9,-99.9,0,0,100,0.00,40.00,19,8,29,0.00
2012-12-25,50.0,45.5,41.0,-99.9,-99.9,-99.9,0,0,100,0.00,40.00,29,13,37,0.00
2012-12-26,50.0,45.5,42.0,-99.9,-99.9,-99.9,0,0,100,0.00,40.00,22,11,29,0.00
2012-12-27,46.0,42.9,38.0,-99.9,-99.9,-99.9,0,0,100,0.00,40.00,10,6,14,0.00
2012-12-28,44.0,42.8,41.0,-99.9,-99.9,-99.9,0,0,100,0.00,40.00,13,10,15,0.00
2012-12-29,46.0,41.4,38.0,-99.9,-99.9,-99.9,0,0,100,0.00,40.00,13,8,15,0.00
2012-12-30,45.0,40.2,37.0,-99.9,-99.9,-99.9,0,0,100,0.00,40.00,19,13,21,0.00
2012-12-31,43.0,39.0,36.0,-99.9,-99.9,-99.9,0,0,100,0.00,40.00,17,13,22,0.00
2013-1-1,45.0,39.8,35.0,-99.9,-99.9,-99.9,0,0,100,0.00,40.00,29,18,35,0.00